createdAt,value
2018-09-03T00:02:04.245Z,17.70
2018-09-03T00:04:31.578Z,17.27
2018-09-03T00:06:59.586Z,18.25
2018-09-03T00:09:28.783Z,17.02
2018-09-03T00:11:56.192Z,21.73
2018-09-03T00:14:23.538Z,17.30
2018-09-03T00:16:50.890Z,17.85
2018-09-03T00:19:18.439Z,16.40
2018-09-03T00:21:46.202Z,17.02
2018-09-03T00:24:13.581Z,18.97
2018-09-03T00:26:41.013Z,17.70
2018-09-03T00:29:08.383Z,18.67
2018-09-03T00:31:41.477Z,18.10
2018-09-03T00:34:14.110Z,17.27
2018-09-03T00:36:46.730Z,18.27
2018-09-03T00:39:19.372Z,18.67
2018-09-03T00:41:52.074Z,19.35
2018-09-03T00:44:24.770Z,19.82
2018-09-03T00:46:57.885Z,18.37
2018-09-03T00:49:26.180Z,18.43
2018-09-03T00:51:53.595Z,18.92
2018-09-03T00:54:20.984Z,19.02
2018-09-03T00:56:48.443Z,18.00
2018-09-03T00:59:16.443Z,18.02
2018-09-03T01:01:47.894Z,17.55
2018-09-03T01:04:15.610Z,17.95
2018-09-03T01:06:42.917Z,17.12
2018-09-03T01:09:10.286Z,18.20
2018-09-03T01:11:37.624Z,18.00
2018-09-03T01:14:05.017Z,18.53
2018-09-03T01:16:32.503Z,18.57
2018-09-03T01:19:00.208Z,17.27
2018-09-03T01:21:27.986Z,18.10
2018-09-03T01:23:55.777Z,18.12
2018-09-03T01:26:23.794Z,18.85
2018-09-03T01:28:51.241Z,19.10
2018-09-03T01:31:20.563Z,18.73
2018-09-03T01:33:49.905Z,18.73
2018-09-03T01:36:21.817Z,16.53
2018-09-03T01:38:49.195Z,18.35
2018-09-03T01:41:17.474Z,17.60
2018-09-03T01:43:45.125Z,18.07
2018-09-03T01:46:12.791Z,18.10
2018-09-03T01:48:40.318Z,18.20
2018-09-03T01:51:07.632Z,17.20
2018-09-03T01:53:35.711Z,18.93
2018-09-03T01:56:03.113Z,17.32
2018-09-03T01:58:32.012Z,18.40
2018-09-03T02:00:59.413Z,17.20
2018-09-03T02:03:26.796Z,18.40
2018-09-03T02:05:54.178Z,17.82
2018-09-03T02:08:21.514Z,17.37
2018-09-03T02:10:49.335Z,17.75
2018-09-03T02:13:17.283Z,16.70
2018-09-03T02:15:45.440Z,17.32
2018-09-03T02:18:13.874Z,16.90
2018-09-03T02:20:41.733Z,17.40
2018-09-03T02:23:09.955Z,18.17
2018-09-03T02:25:37.289Z,20.88
2018-09-03T02:28:09.014Z,18.90
2018-09-03T02:30:36.574Z,18.20
2018-09-03T02:33:03.963Z,19.40
2018-09-03T02:35:31.341Z,17.95
2018-09-03T02:37:58.807Z,17.75
2018-09-03T02:40:30.765Z,18.27
2018-09-03T02:42:58.095Z,18.85
2018-09-03T02:45:25.417Z,19.98
2018-09-03T02:47:53.382Z,19.02
2018-09-03T02:50:21.027Z,19.52
2018-09-03T02:52:48.583Z,18.20
2018-09-03T02:55:16.036Z,19.25
2018-09-03T02:57:43.458Z,18.02
2018-09-03T03:00:11.513Z,17.63
2018-09-03T03:02:38.966Z,17.30
2018-09-03T03:05:06.386Z,19.25
2018-09-03T03:07:34.535Z,18.17
2018-09-03T03:10:01.893Z,19.07
2018-09-03T03:12:29.210Z,17.87
2018-09-03T03:15:01.342Z,19.15
2018-09-03T03:17:29.322Z,18.52
2018-09-03T03:19:56.743Z,18.32
2018-09-03T03:22:24.692Z,19.50
2018-09-03T03:24:52.043Z,18.07
2018-09-03T03:27:19.616Z,18.17
2018-09-03T03:29:51.477Z,17.35
2018-09-03T03:32:18.920Z,17.17
2018-09-03T03:34:50.441Z,18.50
2018-09-03T03:37:17.767Z,18.57
2018-09-03T03:39:45.147Z,17.55
2018-09-03T03:42:12.518Z,17.35
2018-09-03T03:44:39.963Z,17.62
2018-09-03T03:47:07.317Z,18.77
2018-09-03T03:49:35.667Z,17.80
2018-09-03T03:52:03.103Z,18.10
2018-09-03T03:54:30.395Z,17.37
2018-09-03T03:56:57.843Z,17.60
2018-09-03T03:59:25.142Z,17.90
2018-09-03T04:01:53.157Z,20.15
2018-09-03T04:04:20.592Z,17.20
2018-09-03T04:06:47.933Z,17.00
2018-09-03T04:09:15.446Z,19.15
2018-09-03T04:11:42.757Z,17.50
2018-09-03T04:14:10.022Z,18.75
2018-09-03T04:16:38.011Z,18.75
2018-09-03T04:19:05.653Z,19.57
2018-09-03T04:21:32.988Z,19.20
2018-09-03T04:24:00.331Z,17.40
2018-09-03T04:26:27.903Z,18.23
2018-09-03T04:28:55.389Z,17.92
2018-09-03T04:31:22.714Z,17.70
2018-09-03T04:33:54.846Z,18.30
2018-09-03T04:38:49.011Z,20.23
2018-09-03T04:41:16.413Z,17.87
2018-09-03T04:43:44.067Z,18.65
2018-09-03T04:46:12.465Z,17.80
2018-09-03T04:48:40.347Z,17.25
2018-09-03T04:51:08.351Z,18.45
2018-09-03T04:53:35.763Z,17.82
2018-09-03T04:56:03.731Z,18.55
2018-09-03T04:58:34.932Z,17.87
2018-09-03T05:01:02.344Z,19.32
2018-09-03T05:03:29.758Z,17.82
2018-09-03T05:05:57.116Z,17.65
2018-09-03T05:08:24.485Z,17.77
2018-09-03T05:10:51.800Z,18.12
2018-09-03T05:13:19.118Z,17.25
2018-09-03T05:15:46.420Z,17.73
2018-09-03T05:18:13.774Z,17.65
2018-09-03T05:20:41.188Z,19.80
2018-09-03T05:23:08.470Z,19.60
2018-09-03T05:25:35.808Z,17.90
2018-09-03T05:28:03.098Z,18.60
2018-09-03T05:30:30.393Z,18.40
2018-09-03T05:32:58.146Z,19.92
2018-09-03T05:35:25.486Z,17.92
2018-09-03T05:37:52.785Z,18.00
2018-09-03T05:40:20.062Z,18.90
2018-09-03T05:42:47.405Z,19.40
2018-09-03T05:45:14.698Z,17.75
2018-09-03T05:47:42.041Z,19.25
2018-09-03T05:50:09.400Z,19.25
2018-09-03T05:52:36.618Z,19.15
2018-09-03T05:55:03.966Z,18.42
2018-09-03T05:57:31.258Z,17.30
2018-09-03T05:59:58.533Z,18.10
2018-09-03T06:02:25.847Z,18.48
2018-09-03T06:04:53.238Z,19.40
2018-09-03T06:07:21.189Z,17.70
2018-09-03T06:09:48.548Z,18.60
2018-09-03T06:12:15.975Z,19.20
2018-09-03T06:14:43.419Z,19.55
2018-09-03T06:17:10.760Z,18.70
2018-09-03T06:19:38.030Z,21.65
2018-09-03T06:22:05.310Z,19.35
2018-09-03T06:24:32.683Z,19.40
2018-09-03T06:27:00.025Z,18.52
2018-09-03T06:29:27.371Z,18.45
2018-09-03T06:31:54.661Z,19.67
2018-09-03T06:34:22.342Z,18.67
2018-09-03T06:36:49.659Z,18.90
2018-09-03T06:39:17.054Z,18.95
2018-09-03T06:41:44.374Z,18.77
2018-09-03T06:44:11.729Z,20.05
2018-09-03T06:46:40.026Z,21.10
2018-09-03T06:49:07.363Z,19.65
2018-09-03T06:51:34.832Z,20.62
2018-09-03T06:54:02.250Z,20.97
2018-09-03T06:56:29.803Z,20.02
2018-09-03T06:58:57.765Z,29.45
2018-09-03T07:01:25.227Z,19.90
2018-09-03T07:03:52.717Z,19.95
2018-09-03T07:06:20.016Z,19.45
2018-09-03T07:08:48.135Z,20.23
2018-09-03T07:11:15.587Z,19.67
2018-09-03T07:13:43.150Z,20.35
2018-09-03T07:16:10.467Z,20.43
2018-09-03T07:18:37.928Z,18.77
2018-09-03T07:21:05.974Z,18.65
2018-09-03T07:23:33.366Z,19.30
2018-09-03T07:26:00.701Z,19.90
2018-09-03T07:28:28.744Z,19.03
2018-09-03T07:30:56.466Z,19.80
2018-09-03T07:33:23.873Z,19.30
2018-09-03T07:35:51.295Z,17.77
2018-09-03T07:38:18.675Z,21.67
2018-09-03T07:40:46.076Z,17.63
2018-09-03T07:43:13.415Z,19.03
2018-09-03T07:45:40.707Z,17.50
2018-09-03T07:48:08.017Z,18.30
2018-09-03T07:50:35.291Z,18.20
2018-09-03T07:53:02.682Z,17.60
2018-09-03T07:55:30.005Z,21.27
2018-09-03T07:57:57.320Z,19.37
2018-09-03T08:00:24.628Z,18.67
2018-09-03T08:02:51.977Z,20.03
2018-09-03T08:05:19.280Z,19.47
2018-09-03T08:07:46.602Z,19.10
2018-09-03T08:10:13.880Z,18.60
2018-09-03T08:12:41.263Z,19.23
2018-09-03T08:15:08.672Z,21.23
2018-09-03T08:17:35.978Z,20.00
2018-09-03T08:20:03.608Z,17.97
2018-09-03T08:22:30.889Z,18.40
2018-09-03T08:24:58.182Z,17.73
2018-09-03T08:27:25.472Z,19.20
2018-09-03T08:29:52.891Z,19.77
2018-09-03T08:32:20.182Z,19.53
2018-09-03T08:34:47.480Z,18.80
2018-09-03T08:37:14.723Z,20.27
2018-09-03T08:39:42.010Z,20.33
2018-09-03T08:42:09.319Z,17.80
2018-09-03T08:44:36.603Z,19.40
2018-09-03T08:47:03.908Z,20.30
2018-09-03T08:49:31.273Z,19.10
2018-09-03T08:51:58.569Z,18.57
2018-09-03T08:54:25.878Z,20.07
2018-09-03T08:56:53.269Z,20.40
2018-09-03T08:59:20.483Z,19.77
2018-09-03T09:01:47.799Z,19.97
2018-09-03T09:04:15.089Z,19.97
2018-09-03T09:06:42.376Z,19.90
2018-09-03T09:09:09.670Z,20.50
2018-09-03T09:11:37.005Z,20.20
2018-09-03T09:14:04.273Z,21.00
2018-09-03T09:16:31.669Z,21.57
2018-09-03T09:18:58.922Z,21.80
2018-09-03T09:21:26.222Z,22.33
2018-09-03T09:23:53.510Z,21.67
2018-09-03T09:26:20.798Z,21.87
2018-09-03T09:28:48.079Z,21.40
2018-09-03T09:31:15.379Z,21.03
2018-09-03T09:33:42.666Z,21.50
2018-09-03T09:36:10.023Z,21.40
2018-09-03T09:38:37.389Z,22.87
2018-09-03T09:41:04.885Z,21.83
2018-09-03T09:43:32.186Z,21.37
2018-09-03T09:45:59.485Z,22.73
2018-09-03T09:48:26.789Z,21.77
2018-09-03T09:50:54.089Z,22.27
2018-09-03T09:53:21.387Z,22.67
2018-09-03T09:55:48.639Z,22.10
2018-09-03T09:58:16.395Z,22.43
2018-09-03T10:00:48.903Z,24.30
2018-09-03T10:03:16.191Z,23.93
2018-09-03T10:05:43.518Z,26.43
2018-09-03T10:08:10.825Z,23.20
2018-09-03T10:10:38.101Z,23.97
2018-09-03T10:13:05.513Z,23.20
2018-09-03T10:15:32.804Z,22.83
2018-09-03T10:18:00.222Z,24.63
2018-09-03T10:20:27.475Z,23.40
2018-09-03T10:22:54.906Z,24.83
2018-09-03T10:25:22.458Z,23.90
2018-09-03T10:27:50.075Z,26.37
2018-09-03T10:30:17.650Z,24.50
2018-09-03T10:32:45.265Z,25.47
2018-09-03T10:35:13.028Z,23.50
2018-09-03T10:37:40.402Z,23.87
2018-09-03T10:40:08.080Z,26.80
2018-09-03T10:42:35.450Z,26.50
2018-09-03T10:45:03.979Z,26.30
2018-09-03T10:47:31.819Z,26.97
2018-09-03T10:49:59.467Z,25.70
2018-09-03T10:52:27.121Z,27.77
2018-09-03T10:54:55.069Z,25.80
2018-09-03T10:57:22.427Z,27.70
2018-09-03T10:59:49.882Z,28.10
2018-09-03T11:02:17.606Z,25.53
2018-09-03T11:04:45.277Z,24.70
2018-09-03T11:07:12.688Z,29.10
2018-09-03T11:09:40.052Z,26.33
2018-09-03T11:12:08.304Z,29.43
2018-09-03T11:14:39.773Z,26.03
2018-09-03T11:17:07.192Z,25.27
2018-09-03T11:19:38.880Z,25.80
2018-09-03T11:22:06.289Z,24.40
2018-09-03T11:24:42.455Z,27.67
2018-09-03T11:27:09.901Z,29.50
2018-09-03T11:29:37.329Z,27.67
2018-09-03T11:32:05.129Z,25.70
2018-09-03T11:34:32.597Z,29.80
2018-09-03T11:37:00.871Z,28.73
2018-09-03T11:39:28.822Z,25.67
2018-09-03T11:41:56.297Z,26.10
2018-09-03T11:44:23.732Z,25.30
2018-09-03T11:46:51.069Z,25.27
2018-09-03T11:49:18.434Z,29.17
2018-09-03T11:51:45.840Z,24.83
2018-09-03T11:54:13.166Z,27.87
2018-09-03T11:56:41.059Z,27.37
2018-09-03T11:59:08.414Z,28.47
2018-09-03T12:01:35.789Z,27.43
2018-09-03T12:04:03.155Z,28.73
2018-09-03T12:06:30.470Z,26.83
2018-09-03T12:08:58.000Z,26.23
2018-09-03T12:11:25.318Z,27.20
2018-09-03T12:13:52.855Z,28.53
2018-09-03T12:16:23.550Z,26.07
2018-09-03T12:18:51.355Z,26.37
2018-09-03T12:21:19.244Z,27.67
2018-09-03T12:23:46.582Z,27.70
2018-09-03T12:26:14.020Z,27.80
2018-09-03T12:28:41.299Z,27.33
2018-09-03T12:31:08.919Z,28.40
2018-09-03T12:33:36.256Z,27.07
2018-09-03T12:36:04.460Z,29.10
2018-09-03T12:38:31.814Z,28.57
2018-09-03T12:40:59.208Z,28.67
2018-09-03T12:43:26.825Z,30.90
2018-09-03T12:45:59.082Z,27.30
2018-09-03T12:48:26.460Z,30.90
2018-09-03T12:50:53.710Z,28.13
2018-09-03T12:53:21.005Z,29.53
2018-09-03T12:55:48.304Z,27.87
2018-09-03T12:58:15.626Z,28.60
2018-09-03T13:00:42.933Z,28.13
2018-09-03T13:03:10.791Z,27.00
2018-09-03T13:05:38.030Z,32.70
2018-09-03T13:08:05.553Z,30.77
2018-09-03T13:10:32.830Z,29.60
2018-09-03T13:13:00.322Z,33.27
2018-09-03T13:15:27.587Z,31.10
2018-09-03T13:17:54.885Z,34.77
2018-09-03T13:20:22.300Z,31.70
2018-09-03T13:22:49.600Z,31.07
2018-09-03T13:25:17.245Z,33.87
2018-09-03T13:27:44.582Z,30.90
2018-09-03T13:30:11.949Z,35.37
2018-09-03T13:32:39.293Z,28.53
2018-09-03T13:35:07.194Z,33.00
2018-09-03T13:37:34.866Z,32.10
2018-09-03T13:40:02.191Z,31.93
2018-09-03T13:42:29.576Z,34.00
2018-09-03T13:44:56.895Z,32.87
2018-09-03T13:47:24.686Z,34.40
2018-09-03T13:49:52.096Z,31.60
2018-09-03T13:52:19.440Z,32.83
2018-09-03T13:54:46.916Z,33.43
2018-09-03T13:57:14.251Z,35.73
2018-09-03T13:59:41.553Z,40.17
2018-09-03T14:02:09.142Z,32.10
2018-09-03T14:04:36.514Z,32.73
2018-09-03T14:07:03.907Z,33.20
2018-09-03T14:09:32.290Z,31.60
2018-09-03T14:11:59.590Z,33.27
2018-09-03T14:14:26.934Z,35.90
2018-09-03T14:16:54.341Z,33.90
2018-09-03T14:19:21.725Z,33.20
2018-09-03T14:21:49.019Z,33.80
2018-09-03T14:24:16.447Z,34.00
2018-09-03T14:26:43.772Z,33.40
2018-09-03T14:29:11.404Z,33.27
2018-09-03T14:31:39.379Z,33.80
2018-09-03T14:34:06.766Z,35.57
2018-09-03T14:36:34.075Z,33.13
2018-09-03T14:39:01.383Z,36.33
2018-09-03T14:41:28.690Z,36.20
2018-09-03T14:43:55.992Z,36.60
2018-09-03T14:46:23.275Z,33.27
2018-09-03T14:48:50.585Z,34.27
2018-09-03T14:51:17.933Z,31.63
2018-09-03T14:53:45.198Z,34.60
2018-09-03T14:56:12.607Z,33.77
2018-09-03T14:58:39.895Z,34.70
2018-09-03T15:01:07.186Z,36.10
2018-09-03T15:03:34.511Z,33.70
2018-09-03T15:06:01.898Z,35.30
2018-09-03T15:08:29.343Z,35.13
2018-09-03T15:10:56.615Z,33.13
2018-09-03T15:13:23.927Z,32.87
2018-09-03T15:15:51.227Z,35.17
2018-09-03T15:18:18.566Z,35.70
2018-09-03T15:20:45.852Z,35.80
2018-09-03T15:23:13.166Z,34.57
2018-09-03T15:25:40.429Z,34.10
2018-09-03T15:28:07.718Z,35.87
2018-09-03T15:30:35.019Z,34.77
2018-09-03T15:33:02.378Z,36.30
2018-09-03T15:35:29.656Z,34.40
2018-09-03T15:37:56.999Z,32.70
2018-09-03T15:40:24.262Z,32.13
2018-09-03T15:42:51.596Z,35.33
2018-09-03T15:45:19.187Z,33.13
2018-09-03T15:47:46.551Z,30.07
2018-09-03T15:50:14.090Z,32.73
2018-09-03T15:52:41.358Z,32.30
2018-09-03T15:55:08.691Z,33.83
2018-09-03T15:57:36.063Z,38.13
2018-09-03T16:00:03.469Z,32.40
2018-09-03T16:02:30.778Z,32.77
2018-09-03T16:04:58.107Z,31.63
2018-09-03T16:07:25.426Z,30.87
2018-09-03T16:09:52.739Z,31.87
2018-09-03T16:12:20.515Z,33.63
2018-09-03T16:14:47.871Z,33.40
2018-09-03T16:17:15.191Z,31.17
2018-09-03T16:19:42.511Z,30.60
2018-09-03T16:22:09.994Z,32.73
2018-09-03T16:24:37.375Z,34.53
2018-09-03T16:27:04.719Z,32.60
2018-09-03T16:29:32.031Z,33.97
2018-09-03T16:31:59.343Z,31.60
2018-09-03T16:34:26.720Z,32.90
2018-09-03T16:36:54.056Z,32.27
2018-09-03T16:39:21.408Z,35.17
2018-09-03T16:41:48.755Z,29.50
2018-09-03T16:44:16.131Z,31.47
2018-09-03T16:46:43.426Z,32.97
2018-09-03T16:49:10.753Z,32.33
2018-09-03T16:51:38.319Z,38.13
2018-09-03T16:54:05.748Z,31.87
2018-09-03T16:56:33.420Z,33.10
2018-09-03T16:59:00.662Z,31.13
2018-09-03T17:01:28.266Z,31.57
2018-09-03T17:03:55.348Z,32.43
2018-09-03T17:06:22.984Z,36.40
2018-09-03T17:08:50.367Z,31.90
2018-09-03T17:11:17.965Z,36.10
2018-09-03T17:13:45.419Z,34.73
2018-09-03T17:16:16.716Z,31.80
2018-09-03T17:18:44.554Z,36.00
2018-09-03T17:21:12.508Z,32.57
2018-09-03T17:23:39.923Z,32.27
2018-09-03T17:26:07.332Z,30.60
2018-09-03T17:28:35.902Z,31.10
2018-09-03T17:31:03.320Z,32.40
2018-09-03T17:33:30.744Z,30.70
2018-09-03T17:35:58.624Z,32.13
2018-09-03T17:38:27.764Z,29.63
2018-09-03T17:40:55.311Z,32.50
2018-09-03T17:43:22.677Z,29.43
2018-09-03T17:45:54.072Z,29.80
2018-09-03T17:48:21.449Z,29.37
2018-09-03T17:50:50.225Z,32.87
2018-09-03T17:55:44.471Z,30.20
2018-09-03T17:58:12.422Z,32.17
2018-09-03T18:00:40.190Z,31.30
2018-09-03T18:03:07.683Z,30.87
2018-09-03T18:05:39.364Z,34.27
2018-09-03T18:08:06.876Z,31.70
2018-09-03T18:10:38.518Z,32.77
2018-09-03T18:13:06.192Z,32.63
2018-09-03T18:15:33.610Z,33.50
2018-09-03T18:18:01.002Z,33.97
2018-09-03T18:20:29.195Z,32.50
2018-09-03T18:22:57.239Z,31.27
2018-09-03T18:25:24.615Z,31.93
2018-09-03T18:27:52.917Z,33.60
2018-09-03T18:30:20.597Z,32.30
2018-09-03T18:32:49.010Z,33.37
2018-09-03T18:35:16.839Z,33.20
2018-09-03T18:37:44.329Z,35.50
2018-09-03T18:40:12.430Z,31.80
2018-09-03T18:42:40.007Z,38.03
2018-09-03T18:45:08.367Z,36.03
2018-09-03T18:47:38.519Z,30.70
2018-09-03T18:50:12.436Z,34.73
2018-09-03T18:52:40.551Z,33.60
2018-09-03T18:55:09.351Z,33.80
2018-09-03T18:57:36.965Z,33.27
2018-09-03T19:00:09.959Z,28.50
2018-09-03T19:02:37.396Z,30.73
2018-09-03T19:05:05.310Z,33.17
2018-09-03T19:07:33.196Z,33.70
2018-09-03T19:10:00.858Z,30.60
2018-09-03T19:12:29.156Z,35.00
2018-09-03T19:14:57.189Z,30.90
2018-09-03T19:17:25.170Z,30.43
2018-09-03T19:19:52.851Z,34.23
2018-09-03T19:22:20.343Z,31.70
2018-09-03T19:24:48.108Z,32.63
2018-09-03T19:27:15.775Z,29.90
2018-09-03T19:29:52.168Z,29.87
2018-09-03T19:32:20.303Z,28.97
2018-09-03T19:34:47.995Z,30.13
2018-09-03T19:37:15.393Z,31.93
2018-09-03T19:39:43.055Z,31.40
2018-09-03T19:42:10.516Z,36.03
2018-09-03T19:44:38.273Z,31.37
2018-09-03T19:47:05.611Z,30.10
2018-09-03T19:49:33.471Z,28.93
2018-09-03T19:52:01.029Z,32.60
2018-09-03T19:54:28.450Z,32.37
2018-09-03T19:56:56.756Z,30.53
2018-09-03T19:59:24.842Z,29.47
2018-09-03T20:01:54.186Z,30.57
2018-09-03T20:04:25.464Z,29.67
2018-09-03T20:06:52.923Z,30.47
2018-09-03T20:09:21.902Z,28.80
2018-09-03T20:11:49.287Z,30.20
2018-09-03T20:14:16.684Z,28.93
2018-09-03T20:16:44.141Z,31.00
2018-09-03T20:19:11.575Z,31.20
2018-09-03T20:21:40.140Z,34.43
2018-09-03T20:24:07.625Z,34.17
2018-09-03T20:26:35.086Z,32.20
2018-09-03T20:29:02.498Z,35.67
2018-09-03T20:31:29.997Z,35.00
2018-09-03T20:33:58.024Z,33.00
2018-09-03T20:36:27.180Z,34.47
2018-09-03T20:38:54.414Z,35.60
2018-09-03T20:41:21.839Z,37.20
2018-09-03T20:43:49.942Z,35.83
2018-09-03T20:48:44.725Z,31.90
2018-09-03T20:51:12.662Z,33.20
2018-09-03T20:53:41.211Z,32.37
2018-09-03T20:56:09.385Z,35.13
2018-09-03T20:58:45.221Z,35.77
2018-09-03T21:01:13.499Z,34.60
2018-09-03T21:03:41.327Z,34.43
2018-09-03T21:06:08.834Z,37.63
2018-09-03T21:08:36.210Z,33.20
2018-09-03T21:11:03.812Z,33.30
2018-09-03T21:13:31.417Z,31.50
2018-09-03T21:15:58.863Z,35.50
2018-09-03T21:18:26.878Z,31.40
2018-09-03T21:20:55.008Z,31.90
2018-09-03T21:23:27.713Z,32.73
2018-09-03T21:25:55.425Z,32.50
2018-09-03T21:28:23.755Z,32.00
2018-09-03T21:30:51.056Z,33.47
2018-09-03T21:33:18.984Z,37.60
2018-09-03T21:35:47.700Z,31.53
2018-09-03T21:38:15.698Z,35.63
2018-09-03T21:40:43.818Z,33.37
2018-09-03T21:43:11.364Z,33.10
2018-09-03T21:45:40.011Z,32.80
2018-09-03T21:48:07.534Z,37.80
2018-09-03T21:50:35.327Z,36.53
2018-09-03T21:53:03.325Z,36.20
2018-09-03T21:55:35.569Z,37.83
2018-09-03T21:58:02.921Z,37.47
2018-09-03T22:00:34.707Z,33.97
2018-09-03T22:03:02.060Z,40.40
2018-09-03T22:05:34.821Z,36.13
2018-09-03T22:08:02.324Z,40.37
2018-09-03T22:10:30.235Z,35.00
2018-09-03T22:12:57.634Z,37.43
2018-09-03T22:15:24.991Z,35.63
2018-09-03T22:17:52.779Z,35.80
2018-09-03T22:20:20.082Z,32.90
2018-09-03T22:22:48.340Z,38.47
2018-09-03T22:25:21.067Z,35.30
2018-09-03T22:27:48.798Z,37.17
2018-09-03T22:30:16.793Z,46.57
2018-09-03T22:32:44.997Z,34.15
2018-09-03T22:35:12.455Z,35.60
2018-09-03T22:37:39.919Z,39.07
2018-09-03T22:40:07.298Z,39.10
2018-09-03T22:42:35.588Z,36.35
2018-09-03T22:45:03.675Z,39.07
2018-09-03T22:47:31.095Z,40.87
2018-09-03T22:49:59.248Z,38.27
2018-09-03T22:52:26.666Z,39.03
2018-09-03T22:54:54.018Z,39.63
2018-09-03T22:57:25.275Z,38.40
2018-09-03T22:59:57.402Z,44.30
2018-09-03T23:02:25.729Z,43.93
2018-09-03T23:04:54.360Z,42.80
2018-09-03T23:07:21.834Z,38.27
2018-09-03T23:09:49.357Z,45.23
2018-09-03T23:12:21.572Z,45.77
2018-09-03T23:14:49.238Z,52.53
2018-09-03T23:17:16.714Z,51.68
2018-09-03T23:19:44.088Z,49.27
2018-09-03T23:22:11.435Z,54.95
2018-09-03T23:24:38.900Z,52.03
2018-09-03T23:27:06.333Z,52.60
2018-09-03T23:29:33.805Z,59.45
2018-09-03T23:32:01.319Z,52.87
2018-09-03T23:34:28.737Z,55.97
2018-09-03T23:36:56.921Z,54.27
2018-09-03T23:39:24.267Z,52.93
2018-09-03T23:41:55.897Z,55.35
2018-09-03T23:44:23.713Z,51.88
2018-09-03T23:46:52.086Z,51.35
2018-09-03T23:49:19.948Z,57.08
2018-09-03T23:51:47.267Z,52.30
2018-09-03T23:54:14.641Z,52.47
2018-09-03T23:56:45.828Z,51.80
2018-09-03T23:59:13.205Z,51.00
